sensor_id;sensor_type;location;lat;lon;timestamp;temperature;humidity
25410;DHT22;13339;50.840;4.346;2022-09-03T00:00:11;23.50;99.90
25410;DHT22;13339;50.840;4.346;2022-09-03T00:05:31;23.60;99.90
25410;DHT22;13339;50.840;4.346;2022-09-03T00:08:26;23.60;99.90
25410;DHT22;13339;50.840;4.346;2022-09-03T00:11:03;23.60;99.90
25410;DHT22;13339;50.840;4.346;2022-09-03T00:13:52;23.60;99.90
25410;DHT22;13339;50.840;4.346;2022-09-03T00:16:23;23.60;99.90
25410;DHT22;13339;50.840;4.346;2022-09-03T00:19:00;23.50;99.90
25410;DHT22;13339;50.840;4.346;2022-09-03T00:21:36;23.50;99.90
25410;DHT22;13339;50.840;4.346;2022-09-03T00:24:04;23.50;99.90
25410;DHT22;13339;50.840;4.346;2022-09-03T00:26:33;23.40;99.90
25410;DHT22;13339;50.840;4.346;2022-09-03T00:29:14;23.20;99.90
25410;DHT22;13339;50.840;4.346;2022-09-03T00:31:59;23.00;99.90
25410;DHT22;13339;50.840;4.346;2022-09-03T00:34:41;22.90;99.90
25410;DHT22;13339;50.840;4.346;2022-09-03T00:37:08;22.90;99.90
25410;DHT22;13339;50.840;4.346;2022-09-03T00:39:35;22.80;99.90
25410;DHT22;13339;50.840;4.346;2022-09-03T00:45:02;22.80;99.90
25410;DHT22;13339;50.840;4.346;2022-09-03T00:52:43;22.90;99.90
25410;DHT22;13339;50.840;4.346;2022-09-03T00:55:41;22.90;99.90
25410;DHT22;13339;50.840;4.346;2022-09-03T00:58:46;22.80;99.90
25410;DHT22;13339;50.840;4.346;2022-09-03T01:09:55;23.00;99.90
25410;DHT22;13339;50.840;4.346;2022-09-03T01:15:20;23.10;99.90
25410;DHT22;13339;50.840;4.346;2022-09-03T01:20:25;23.20;99.90
25410;DHT22;13339;50.840;4.346;2022-09-03T01:25:56;23.30;99.90
25410;DHT22;13339;50.840;4.346;2022-09-03T01:45:28;23.50;99.90
25410;DHT22;13339;50.840;4.346;2022-09-03T01:59:10;23.20;99.90
25410;DHT22;13339;50.840;4.346;2022-09-03T02:01:52;23.20;99.90
25410;DHT22;13339;50.840;4.346;2022-09-03T02:04:25;23.10;99.90
25410;DHT22;13339;50.840;4.346;2022-09-03T02:06:52;23.00;99.90
25410;DHT22;13339;50.840;4.346;2022-09-03T02:09:19;22.90;99.90
25410;DHT22;13339;50.840;4.346;2022-09-03T02:11:54;22.70;99.90
25410;DHT22;13339;50.840;4.346;2022-09-03T02:14:22;22.80;99.90
25410;DHT22;13339;50.840;4.346;2022-09-03T02:16:47;22.90;99.90
25410;DHT22;13339;50.840;4.346;2022-09-03T02:19:16;22.90;99.90
25410;DHT22;13339;50.840;4.346;2022-09-03T02:21:51;23.00;99.90
25410;DHT22;13339;50.840;4.346;2022-09-03T02:24:17;23.10;99.90
25410;DHT22;13339;50.840;4.346;2022-09-03T02:26:43;23.20;99.90
25410;DHT22;13339;50.840;4.346;2022-09-03T02:29:09;23.30;99.90
25410;DHT22;13339;50.840;4.346;2022-09-03T02:31:36;23.20;99.90
25410;DHT22;13339;50.840;4.346;2022-09-03T02:34:02;23.10;99.90
25410;DHT22;13339;50.840;4.346;2022-09-03T02:36:34;23.10;99.90
25410;DHT22;13339;50.840;4.346;2022-09-03T02:39:01;22.90;99.90
25410;DHT22;13339;50.840;4.346;2022-09-03T02:41:26;22.90;99.90
25410;DHT22;13339;50.840;4.346;2022-09-03T02:44:20;22.90;99.90
25410;DHT22;13339;50.840;4.346;2022-09-03T02:46:55;22.80;99.90
25410;DHT22;13339;50.840;4.346;2022-09-03T02:49:21;22.90;99.90
25410;DHT22;13339;50.840;4.346;2022-09-03T02:51:47;23.00;99.90
25410;DHT22;13339;50.840;4.346;2022-09-03T02:54:13;23.00;99.90
25410;DHT22;13339;50.840;4.346;2022-09-03T02:56:39;23.00;99.90
25410;DHT22;13339;50.840;4.346;2022-09-03T02:59:07;23.10;99.90
25410;DHT22;13339;50.840;4.346;2022-09-03T03:01:33;23.10;99.90
25410;DHT22;13339;50.840;4.346;2022-09-03T03:03:59;23.10;99.90
25410;DHT22;13339;50.840;4.346;2022-09-03T03:06:25;23.20;99.90
25410;DHT22;13339;50.840;4.346;2022-09-03T03:08:51;23.20;99.90
25410;DHT22;13339;50.840;4.346;2022-09-03T03:11:20;23.20;99.90
25410;DHT22;13339;50.840;4.346;2022-09-03T03:13:47;23.30;99.90
25410;DHT22;13339;50.840;4.346;2022-09-03T03:16:14;23.30;99.90
25410;DHT22;13339;50.840;4.346;2022-09-03T03:18:41;23.20;99.90
25410;DHT22;13339;50.840;4.346;2022-09-03T03:21:10;23.20;99.90
25410;DHT22;13339;50.840;4.346;2022-09-03T03:23:37;23.20;99.90
25410;DHT22;13339;50.840;4.346;2022-09-03T03:26:08;23.10;99.90
25410;DHT22;13339;50.840;4.346;2022-09-03T03:28:34;23.10;99.90
25410;DHT22;13339;50.840;4.346;2022-09-03T03:31:08;23.20;99.90
25410;DHT22;13339;50.840;4.346;2022-09-03T03:33:35;23.00;99.90
25410;DHT22;13339;50.840;4.346;2022-09-03T03:36:12;23.00;99.90
25410;DHT22;13339;50.840;4.346;2022-09-03T03:38:39;23.00;99.90
25410;DHT22;13339;50.840;4.346;2022-09-03T03:41:16;23.00;99.90
25410;DHT22;13339;50.840;4.346;2022-09-03T03:43:42;23.00;99.90
25410;DHT22;13339;50.840;4.346;2022-09-03T03:46:08;22.80;99.90
25410;DHT22;13339;50.840;4.346;2022-09-03T03:48:35;22.80;99.90
25410;DHT22;13339;50.840;4.346;2022-09-03T03:51:01;22.90;99.90
25410;DHT22;13339;50.840;4.346;2022-09-03T03:53:29;22.90;99.90
25410;DHT22;13339;50.840;4.346;2022-09-03T03:55:59;23.00;99.90
25410;DHT22;13339;50.840;4.346;2022-09-03T03:58:27;22.90;99.90
25410;DHT22;13339;50.840;4.346;2022-09-03T04:00:53;22.70;99.90
25410;DHT22;13339;50.840;4.346;2022-09-03T04:03:19;22.70;99.90
25410;DHT22;13339;50.840;4.346;2022-09-03T04:05:58;22.70;99.90
25410;DHT22;13339;50.840;4.346;2022-09-03T04:08:25;22.70;99.90
25410;DHT22;13339;50.840;4.346;2022-09-03T04:10:51;22.70;99.90
25410;DHT22;13339;50.840;4.346;2022-09-03T04:13:17;22.70;99.90
25410;DHT22;13339;50.840;4.346;2022-09-03T04:15:43;22.60;99.90
25410;DHT22;13339;50.840;4.346;2022-09-03T04:18:08;22.40;99.90
25410;DHT22;13339;50.840;4.346;2022-09-03T04:20:37;22.40;99.90
25410;DHT22;13339;50.840;4.346;2022-09-03T04:23:04;22.30;99.90
25410;DHT22;13339;50.840;4.346;2022-09-03T04:25:30;22.30;99.90
25410;DHT22;13339;50.840;4.346;2022-09-03T04:27:56;22.30;99.90
25410;DHT22;13339;50.840;4.346;2022-09-03T04:30:21;22.10;99.90
25410;DHT22;13339;50.840;4.346;2022-09-03T04:32:50;22.00;99.90
25410;DHT22;13339;50.840;4.346;2022-09-03T04:35:24;22.00;99.90
25410;DHT22;13339;50.840;4.346;2022-09-03T04:37:50;22.10;99.90
25410;DHT22;13339;50.840;4.346;2022-09-03T04:40:16;22.20;99.90
25410;DHT22;13339;50.840;4.346;2022-09-03T04:42:42;22.20;99.90
25410;DHT22;13339;50.840;4.346;2022-09-03T04:45:08;22.20;99.90
25410;DHT22;13339;50.840;4.346;2022-09-03T04:47:34;22.10;99.90
25410;DHT22;13339;50.840;4.346;2022-09-03T04:50:04;22.10;99.90
25410;DHT22;13339;50.840;4.346;2022-09-03T04:52:30;22.10;99.90
25410;DHT22;13339;50.840;4.346;2022-09-03T04:54:57;22.10;99.90
25410;DHT22;13339;50.840;4.346;2022-09-03T04:57:23;22.10;99.90
25410;DHT22;13339;50.840;4.346;2022-09-03T04:59:48;22.10;99.90
25410;DHT22;13339;50.840;4.346;2022-09-03T05:02:14;22.10;99.90
25410;DHT22;13339;50.840;4.346;2022-09-03T05:04:40;22.20;99.90
25410;DHT22;13339;50.840;4.346;2022-09-03T05:07:06;22.30;99.90
25410;DHT22;13339;50.840;4.346;2022-09-03T05:09:32;22.50;99.90
25410;DHT22;13339;50.840;4.346;2022-09-03T05:11:58;22.50;99.90
25410;DHT22;13339;50.840;4.346;2022-09-03T05:14:23;22.50;99.90
25410;DHT22;13339;50.840;4.346;2022-09-03T05:16:49;22.60;99.90
25410;DHT22;13339;50.840;4.346;2022-09-03T05:19:14;22.70;99.90
25410;DHT22;13339;50.840;4.346;2022-09-03T05:21:40;22.70;99.90
25410;DHT22;13339;50.840;4.346;2022-09-03T05:24:07;22.60;99.90
25410;DHT22;13339;50.840;4.346;2022-09-03T05:26:36;22.60;99.90
25410;DHT22;13339;50.840;4.346;2022-09-03T05:29:05;22.70;99.90
25410;DHT22;13339;50.840;4.346;2022-09-03T05:31:33;22.70;99.90
25410;DHT22;13339;50.840;4.346;2022-09-03T05:34:01;22.90;99.90
25410;DHT22;13339;50.840;4.346;2022-09-03T05:36:30;22.90;99.90
25410;DHT22;13339;50.840;4.346;2022-09-03T05:38:58;22.90;99.90
25410;DHT22;13339;50.840;4.346;2022-09-03T05:41:24;22.90;99.90
25410;DHT22;13339;50.840;4.346;2022-09-03T05:43:51;22.90;99.90
25410;DHT22;13339;50.840;4.346;2022-09-03T05:46:24;22.80;99.90
25410;DHT22;13339;50.840;4.346;2022-09-03T05:49:00;22.90;99.90
25410;DHT22;13339;50.840;4.346;2022-09-03T05:51:26;22.90;99.90
25410;DHT22;13339;50.840;4.346;2022-09-03T05:53:53;22.80;99.90
25410;DHT22;13339;50.840;4.346;2022-09-03T05:56:21;22.80;99.90
25410;DHT22;13339;50.840;4.346;2022-09-03T05:58:49;22.90;99.90
25410;DHT22;13339;50.840;4.346;2022-09-03T06:01:40;22.90;99.90
25410;DHT22;13339;50.840;4.346;2022-09-03T06:06:35;23.10;99.90
25410;DHT22;13339;50.840;4.346;2022-09-03T06:09:03;23.20;99.90
25410;DHT22;13339;50.840;4.346;2022-09-03T06:11:30;23.20;99.90
25410;DHT22;13339;50.840;4.346;2022-09-03T06:14:01;23.20;99.90
25410;DHT22;13339;50.840;4.346;2022-09-03T06:16:29;23.30;99.90
25410;DHT22;13339;50.840;4.346;2022-09-03T06:18:56;23.30;99.90
25410;DHT22;13339;50.840;4.346;2022-09-03T06:21:22;23.30;99.90
25410;DHT22;13339;50.840;4.346;2022-09-03T06:23:52;23.20;99.90
25410;DHT22;13339;50.840;4.346;2022-09-03T06:26:19;23.30;99.90
25410;DHT22;13339;50.840;4.346;2022-09-03T06:28:46;23.20;99.90
25410;DHT22;13339;50.840;4.346;2022-09-03T06:31:15;23.20;99.90
25410;DHT22;13339;50.840;4.346;2022-09-03T06:33:42;23.30;99.90
25410;DHT22;13339;50.840;4.346;2022-09-03T06:36:13;23.40;99.90
25410;DHT22;13339;50.840;4.346;2022-09-03T06:38:40;23.20;99.90
25410;DHT22;13339;50.840;4.346;2022-09-03T06:41:18;23.00;99.90
25410;DHT22;13339;50.840;4.346;2022-09-03T06:43:46;22.90;99.90
25410;DHT22;13339;50.840;4.346;2022-09-03T06:46:14;22.90;99.90
25410;DHT22;13339;50.840;4.346;2022-09-03T06:48:41;22.80;99.90
25410;DHT22;13339;50.840;4.346;2022-09-03T06:51:09;22.90;99.90
25410;DHT22;13339;50.840;4.346;2022-09-03T06:53:40;23.00;99.90
25410;DHT22;13339;50.840;4.346;2022-09-03T06:56:09;23.10;99.90
25410;DHT22;13339;50.840;4.346;2022-09-03T06:58:38;23.30;99.90
25410;DHT22;13339;50.840;4.346;2022-09-03T07:01:15;23.50;99.90
25410;DHT22;13339;50.840;4.346;2022-09-03T07:03:43;23.50;99.90
25410;DHT22;13339;50.840;4.346;2022-09-03T07:06:14;23.50;99.90
25410;DHT22;13339;50.840;4.346;2022-09-03T07:08:40;23.50;99.90
25410;DHT22;13339;50.840;4.346;2022-09-03T07:11:15;23.60;99.90
25410;DHT22;13339;50.840;4.346;2022-09-03T07:13:44;23.70;99.90
25410;DHT22;13339;50.840;4.346;2022-09-03T07:16:13;23.90;99.90
25410;DHT22;13339;50.840;4.346;2022-09-03T07:18:39;24.00;99.90
25410;DHT22;13339;50.840;4.346;2022-09-03T07:21:07;24.00;99.90
25410;DHT22;13339;50.840;4.346;2022-09-03T07:23:35;24.00;99.90
25410;DHT22;13339;50.840;4.346;2022-09-03T07:26:03;24.00;99.90
25410;DHT22;13339;50.840;4.346;2022-09-03T07:28:30;24.00;99.90
25410;DHT22;13339;50.840;4.346;2022-09-03T07:31:07;23.90;99.90
25410;DHT22;13339;50.840;4.346;2022-09-03T07:33:33;23.90;99.90
25410;DHT22;13339;50.840;4.346;2022-09-03T07:36:08;23.90;99.90
25410;DHT22;13339;50.840;4.346;2022-09-03T07:38:35;23.70;99.90
25410;DHT22;13339;50.840;4.346;2022-09-03T07:41:05;23.60;99.90
25410;DHT22;13339;50.840;4.346;2022-09-03T07:43:39;23.60;99.90
25410;DHT22;13339;50.840;4.346;2022-09-03T07:46:08;23.60;99.90
25410;DHT22;13339;50.840;4.346;2022-09-03T07:48:38;23.70;99.90
25410;DHT22;13339;50.840;4.346;2022-09-03T07:51:04;23.70;99.90
25410;DHT22;13339;50.840;4.346;2022-09-03T07:53:29;23.60;99.90
25410;DHT22;13339;50.840;4.346;2022-09-03T07:56:06;23.70;99.90
25410;DHT22;13339;50.840;4.346;2022-09-03T07:58:33;23.80;99.90
25410;DHT22;13339;50.840;4.346;2022-09-03T08:01:04;23.80;99.90
25410;DHT22;13339;50.840;4.346;2022-09-03T08:03:30;23.80;99.90
25410;DHT22;13339;50.840;4.346;2022-09-03T08:06:00;23.80;99.90
25410;DHT22;13339;50.840;4.346;2022-09-03T08:08:26;23.80;99.90
25410;DHT22;13339;50.840;4.346;2022-09-03T08:10:52;24.00;99.90
25410;DHT22;13339;50.840;4.346;2022-09-03T08:13:17;24.20;99.90
25410;DHT22;13339;50.840;4.346;2022-09-03T08:15:53;24.20;99.90
25410;DHT22;13339;50.840;4.346;2022-09-03T08:18:18;24.30;99.90
25410;DHT22;13339;50.840;4.346;2022-09-03T08:20:44;24.40;99.90
25410;DHT22;13339;50.840;4.346;2022-09-03T08:23:10;24.50;99.90
25410;DHT22;13339;50.840;4.346;2022-09-03T08:25:35;24.60;99.90
25410;DHT22;13339;50.840;4.346;2022-09-03T08:28:01;24.60;99.90
25410;DHT22;13339;50.840;4.346;2022-09-03T08:30:27;24.80;99.90
25410;DHT22;13339;50.840;4.346;2022-09-03T08:32:53;24.80;99.90
25410;DHT22;13339;50.840;4.346;2022-09-03T08:35:20;24.90;99.90
25410;DHT22;13339;50.840;4.346;2022-09-03T08:37:47;24.90;99.90
25410;DHT22;13339;50.840;4.346;2022-09-03T08:40:16;24.90;99.90
25410;DHT22;13339;50.840;4.346;2022-09-03T08:42:57;24.90;99.90
25410;DHT22;13339;50.840;4.346;2022-09-03T08:45:30;25.00;99.90
25410;DHT22;13339;50.840;4.346;2022-09-03T08:50:32;25.20;99.90
25410;DHT22;13339;50.840;4.346;2022-09-03T08:55:41;25.30;99.90
25410;DHT22;13339;50.840;4.346;2022-09-03T08:58:15;25.40;99.90
25410;DHT22;13339;50.840;4.346;2022-09-03T09:06:51;25.80;99.90
25410;DHT22;13339;50.840;4.346;2022-09-03T09:12:32;25.70;99.90
25410;DHT22;13339;50.840;4.346;2022-09-03T09:15:25;25.80;99.90
25410;DHT22;13339;50.840;4.346;2022-09-03T09:21:19;26.00;99.90
25410;DHT22;13339;50.840;4.346;2022-09-03T09:23:49;26.20;99.90
25410;DHT22;13339;50.840;4.346;2022-09-03T09:26:20;26.30;99.90
25410;DHT22;13339;50.840;4.346;2022-09-03T09:28:53;26.40;99.90
25410;DHT22;13339;50.840;4.346;2022-09-03T09:31:20;26.60;99.90
25410;DHT22;13339;50.840;4.346;2022-09-03T09:33:45;26.60;99.90
25410;DHT22;13339;50.840;4.346;2022-09-03T09:36:13;26.50;99.90
25410;DHT22;13339;50.840;4.346;2022-09-03T09:38:41;26.40;99.90
25410;DHT22;13339;50.840;4.346;2022-09-03T09:41:12;26.30;99.90
25410;DHT22;13339;50.840;4.346;2022-09-03T09:43:40;26.40;99.90
25410;DHT22;13339;50.840;4.346;2022-09-03T09:46:12;26.40;99.90
25410;DHT22;13339;50.840;4.346;2022-09-03T09:48:48;26.50;99.90
25410;DHT22;13339;50.840;4.346;2022-09-03T09:51:25;26.50;99.90
25410;DHT22;13339;50.840;4.346;2022-09-03T09:54:01;26.60;99.90
25410;DHT22;13339;50.840;4.346;2022-09-03T09:56:27;26.70;99.90
25410;DHT22;13339;50.840;4.346;2022-09-03T09:59:07;26.70;99.90
25410;DHT22;13339;50.840;4.346;2022-09-03T10:01:40;26.80;99.90
25410;DHT22;13339;50.840;4.346;2022-09-03T10:04:22;26.80;99.90
25410;DHT22;13339;50.840;4.346;2022-09-03T10:07:20;26.90;99.90
25410;DHT22;13339;50.840;4.346;2022-09-03T10:09:44;26.80;99.90
25410;DHT22;13339;50.840;4.346;2022-09-03T10:12:43;26.70;99.90
25410;DHT22;13339;50.840;4.346;2022-09-03T10:15:21;26.80;99.90
25410;DHT22;13339;50.840;4.346;2022-09-03T10:18:11;26.90;99.90
25410;DHT22;13339;50.840;4.346;2022-09-03T10:20:51;26.90;99.90
25410;DHT22;13339;50.840;4.346;2022-09-03T10:23:31;27.10;99.90
25410;DHT22;13339;50.840;4.346;2022-09-03T10:26:08;27.20;99.90
25410;DHT22;13339;50.840;4.346;2022-09-03T10:28:38;27.30;99.90
25410;DHT22;13339;50.840;4.346;2022-09-03T10:37:28;27.50;99.90
25410;DHT22;13339;50.840;4.346;2022-09-03T10:45:56;27.30;99.90
25410;DHT22;13339;50.840;4.346;2022-09-03T10:51:17;26.30;99.90
25410;DHT22;13339;50.840;4.346;2022-09-03T11:05:01;27.00;99.90
25410;DHT22;13339;50.840;4.346;2022-09-03T11:07:37;26.90;99.90
25410;DHT22;13339;50.840;4.346;2022-09-03T11:15:36;27.20;99.90
25410;DHT22;13339;50.840;4.346;2022-09-03T11:20:39;27.50;99.90
25410;DHT22;13339;50.840;4.346;2022-09-03T11:23:06;27.60;99.90
25410;DHT22;13339;50.840;4.346;2022-09-03T11:25:55;27.60;99.90
25410;DHT22;13339;50.840;4.346;2022-09-03T11:28:51;27.60;99.90
25410;DHT22;13339;50.840;4.346;2022-09-03T11:34:11;27.80;99.90
25410;DHT22;13339;50.840;4.346;2022-09-03T11:36:40;27.70;99.90
25410;DHT22;13339;50.840;4.346;2022-09-03T11:39:21;27.90;99.90
25410;DHT22;13339;50.840;4.346;2022-09-03T11:41:58;27.70;99.90
25410;DHT22;13339;50.840;4.346;2022-09-03T11:44:41;27.70;99.90
25410;DHT22;13339;50.840;4.346;2022-09-03T11:49:50;27.60;99.90
25410;DHT22;13339;50.840;4.346;2022-09-03T11:52:27;27.60;99.90
25410;DHT22;13339;50.840;4.346;2022-09-03T11:54:53;27.70;99.90
25410;DHT22;13339;50.840;4.346;2022-09-03T11:57:25;27.70;99.90
25410;DHT22;13339;50.840;4.346;2022-09-03T11:59:51;27.60;99.90
25410;DHT22;13339;50.840;4.346;2022-09-03T12:02:29;27.60;99.90
25410;DHT22;13339;50.840;4.346;2022-09-03T12:05:40;27.50;99.90
25410;DHT22;13339;50.840;4.346;2022-09-03T12:14:20;27.80;99.90
25410;DHT22;13339;50.840;4.346;2022-09-03T12:16:59;28.00;99.90
25410;DHT22;13339;50.840;4.346;2022-09-03T12:19:43;28.00;99.90
25410;DHT22;13339;50.840;4.346;2022-09-03T12:22:14;28.10;99.90
25410;DHT22;13339;50.840;4.346;2022-09-03T12:24:40;28.30;99.90
25410;DHT22;13339;50.840;4.346;2022-09-03T12:27:11;28.40;99.90
25410;DHT22;13339;50.840;4.346;2022-09-03T12:29:53;28.50;99.90
25410;DHT22;13339;50.840;4.346;2022-09-03T12:32:23;28.60;99.90
25410;DHT22;13339;50.840;4.346;2022-09-03T12:34:49;28.70;99.90
25410;DHT22;13339;50.840;4.346;2022-09-03T12:37:20;28.90;99.90
25410;DHT22;13339;50.840;4.346;2022-09-03T12:39:55;28.70;99.90
25410;DHT22;13339;50.840;4.346;2022-09-03T12:42:27;28.90;99.90
25410;DHT22;13339;50.840;4.346;2022-09-03T12:44:54;29.00;99.90
25410;DHT22;13339;50.840;4.346;2022-09-03T12:47:22;29.00;99.90
25410;DHT22;13339;50.840;4.346;2022-09-03T12:49:50;28.80;99.90
25410;DHT22;13339;50.840;4.346;2022-09-03T12:52:29;28.60;99.90
25410;DHT22;13339;50.840;4.346;2022-09-03T12:55:00;28.50;99.90
25410;DHT22;13339;50.840;4.346;2022-09-03T12:57:37;28.30;99.90
25410;DHT22;13339;50.840;4.346;2022-09-03T13:00:07;28.10;99.90
25410;DHT22;13339;50.840;4.346;2022-09-03T13:05:11;28.10;99.90
25410;DHT22;13339;50.840;4.346;2022-09-03T13:07:38;28.00;99.90
25410;DHT22;13339;50.840;4.346;2022-09-03T13:10:06;27.90;99.90
25410;DHT22;13339;50.840;4.346;2022-09-03T13:12:45;28.00;99.90
25410;DHT22;13339;50.840;4.346;2022-09-03T13:15:23;28.00;99.90
25410;DHT22;13339;50.840;4.346;2022-09-03T13:21:08;28.50;99.90
25410;DHT22;13339;50.840;4.346;2022-09-03T13:29:38;29.10;99.90
25410;DHT22;13339;50.840;4.346;2022-09-03T13:34:49;29.50;99.90
25410;DHT22;13339;50.840;4.346;2022-09-03T13:43:10;29.70;99.90
25410;DHT22;13339;50.840;4.346;2022-09-03T13:45:47;29.70;99.90
25410;DHT22;13339;50.840;4.346;2022-09-03T13:53:43;30.20;99.90
25410;DHT22;13339;50.840;4.346;2022-09-03T13:56:21;30.30;99.90
25410;DHT22;13339;50.840;4.346;2022-09-03T13:58:52;30.40;99.90
25410;DHT22;13339;50.840;4.346;2022-09-03T14:01:24;30.30;99.90
25410;DHT22;13339;50.840;4.346;2022-09-03T14:04:01;30.30;99.90
25410;DHT22;13339;50.840;4.346;2022-09-03T14:06:50;30.20;99.90
25410;DHT22;13339;50.840;4.346;2022-09-03T14:09:50;30.30;99.90
25410;DHT22;13339;50.840;4.346;2022-09-03T14:12:33;30.20;99.90
25410;DHT22;13339;50.840;4.346;2022-09-03T14:15:26;30.10;99.90
25410;DHT22;13339;50.840;4.346;2022-09-03T14:18:07;30.10;99.90
25410;DHT22;13339;50.840;4.346;2022-09-03T14:20:46;29.90;99.90
25410;DHT22;13339;50.840;4.346;2022-09-03T14:23:25;29.80;99.90
25410;DHT22;13339;50.840;4.346;2022-09-03T14:25:54;29.70;99.90
25410;DHT22;13339;50.840;4.346;2022-09-03T14:28:33;29.70;99.90
25410;DHT22;13339;50.840;4.346;2022-09-03T14:31:15;29.70;99.90
25410;DHT22;13339;50.840;4.346;2022-09-03T14:34:05;29.60;99.90
25410;DHT22;13339;50.840;4.346;2022-09-03T14:37:02;29.50;99.90
25410;DHT22;13339;50.840;4.346;2022-09-03T14:39:33;29.40;99.90
25410;DHT22;13339;50.840;4.346;2022-09-03T14:44:53;29.10;99.90
25410;DHT22;13339;50.840;4.346;2022-09-03T14:50:17;29.00;99.90
25410;DHT22;13339;50.840;4.346;2022-09-03T15:07:47;28.70;99.90
25410;DHT22;13339;50.840;4.346;2022-09-03T15:10:43;28.40;99.90
25410;DHT22;13339;50.840;4.346;2022-09-03T15:13:20;28.40;99.90
25410;DHT22;13339;50.840;4.346;2022-09-03T15:21:04;28.00;99.90
25410;DHT22;13339;50.840;4.346;2022-09-03T15:29:02;28.00;99.90
25410;DHT22;13339;50.840;4.346;2022-09-03T15:31:49;28.10;99.90
25410;DHT22;13339;50.840;4.346;2022-09-03T15:43:31;27.90;99.90
25410;DHT22;13339;50.840;4.346;2022-09-03T15:46:08;27.60;99.90
25410;DHT22;13339;50.840;4.346;2022-09-03T15:51:34;27.30;99.90
25410;DHT22;13339;50.840;4.346;2022-09-03T15:54:20;27.20;99.90
25410;DHT22;13339;50.840;4.346;2022-09-03T15:57:00;26.90;99.90
25410;DHT22;13339;50.840;4.346;2022-09-03T16:02:24;26.60;99.90
25410;DHT22;13339;50.840;4.346;2022-09-03T16:05:04;26.60;99.90
25410;DHT22;13339;50.840;4.346;2022-09-03T16:10:09;26.60;99.90
25410;DHT22;13339;50.840;4.346;2022-09-03T16:13:02;26.70;99.90
25410;DHT22;13339;50.840;4.346;2022-09-03T16:15:40;26.70;99.90
25410;DHT22;13339;50.840;4.346;2022-09-03T16:18:41;26.60;99.90
25410;DHT22;13339;50.840;4.346;2022-09-03T16:21:25;26.70;99.90
25410;DHT22;13339;50.840;4.346;2022-09-03T16:26:53;26.90;99.90
25410;DHT22;13339;50.840;4.346;2022-09-03T16:29:26;27.00;99.90
25410;DHT22;13339;50.840;4.346;2022-09-03T16:32:44;27.00;99.90
25410;DHT22;13339;50.840;4.346;2022-09-03T16:38:26;26.90;99.90
25410;DHT22;13339;50.840;4.346;2022-09-03T16:40:47;26.90;99.90
25410;DHT22;13339;50.840;4.346;2022-09-03T16:51:34;26.60;99.90
25410;DHT22;13339;50.840;4.346;2022-09-03T16:56:57;26.80;99.90
25410;DHT22;13339;50.840;4.346;2022-09-03T17:02:48;26.90;99.90
25410;DHT22;13339;50.840;4.346;2022-09-03T17:05:34;26.80;99.90
25410;DHT22;13339;50.840;4.346;2022-09-03T17:10:48;26.70;99.90
25410;DHT22;13339;50.840;4.346;2022-09-03T17:19:47;26.30;99.90
25410;DHT22;13339;50.840;4.346;2022-09-03T17:25:01;26.20;99.90
25410;DHT22;13339;50.840;4.346;2022-09-03T17:28:01;26.10;99.90
25410;DHT22;13339;50.840;4.346;2022-09-03T17:33:25;25.80;99.90
25410;DHT22;13339;50.840;4.346;2022-09-03T17:36:07;25.70;99.90
25410;DHT22;13339;50.840;4.346;2022-09-03T17:39:18;25.70;99.90
25410;DHT22;13339;50.840;4.346;2022-09-03T17:41:53;25.60;99.90
25410;DHT22;13339;50.840;4.346;2022-09-03T17:44:37;25.40;99.90
25410;DHT22;13339;50.840;4.346;2022-09-03T17:52:48;25.30;99.90
25410;DHT22;13339;50.840;4.346;2022-09-03T17:55:36;25.30;99.90
25410;DHT22;13339;50.840;4.346;2022-09-03T18:03:46;25.10;99.90
25410;DHT22;13339;50.840;4.346;2022-09-03T18:09:11;25.00;99.90
25410;DHT22;13339;50.840;4.346;2022-09-03T18:11:49;24.90;99.90
25410;DHT22;13339;50.840;4.346;2022-09-03T18:14:29;24.90;99.90
25410;DHT22;13339;50.840;4.346;2022-09-03T18:17:13;24.90;99.90
25410;DHT22;13339;50.840;4.346;2022-09-03T18:20:02;24.90;99.90
25410;DHT22;13339;50.840;4.346;2022-09-03T18:22:54;24.90;99.90
25410;DHT22;13339;50.840;4.346;2022-09-03T18:25:46;24.80;99.90
25410;DHT22;13339;50.840;4.346;2022-09-03T18:31:46;25.00;99.90
25410;DHT22;13339;50.840;4.346;2022-09-03T18:34:33;24.90;99.90
25410;DHT22;13339;50.840;4.346;2022-09-03T18:37:21;24.80;99.90
25410;DHT22;13339;50.840;4.346;2022-09-03T18:40:07;24.70;99.90
25410;DHT22;13339;50.840;4.346;2022-09-03T18:46:14;24.50;99.90
25410;DHT22;13339;50.840;4.346;2022-09-03T18:49:08;24.40;99.90
25410;DHT22;13339;50.840;4.346;2022-09-03T18:52:03;24.30;99.90
25410;DHT22;13339;50.840;4.346;2022-09-03T18:55:25;24.20;99.90
25410;DHT22;13339;50.840;4.346;2022-09-03T19:01:35;24.00;99.90
25410;DHT22;13339;50.840;4.346;2022-09-03T19:10:55;23.90;99.90
25410;DHT22;13339;50.840;4.346;2022-09-03T19:13:39;23.80;99.90
25410;DHT22;13339;50.840;4.346;2022-09-03T19:17:01;23.70;99.90
25410;DHT22;13339;50.840;4.346;2022-09-03T19:20:12;23.80;99.90
25410;DHT22;13339;50.840;4.346;2022-09-03T19:23:02;23.80;99.90
25410;DHT22;13339;50.840;4.346;2022-09-03T19:25:46;23.90;99.90
25410;DHT22;13339;50.840;4.346;2022-09-03T19:28:35;24.00;99.90
25410;DHT22;13339;50.840;4.346;2022-09-03T19:54:53;24.40;99.90
25410;DHT22;13339;50.840;4.346;2022-09-03T19:57:40;24.50;99.90
25410;DHT22;13339;50.840;4.346;2022-09-03T20:00:26;24.40;99.90
25410;DHT22;13339;50.840;4.346;2022-09-03T20:03:12;24.40;99.90
25410;DHT22;13339;50.840;4.346;2022-09-03T20:05:58;24.40;99.90
25410;DHT22;13339;50.840;4.346;2022-09-03T20:08:44;24.40;99.90
25410;DHT22;13339;50.840;4.346;2022-09-03T20:11:29;24.40;99.90
25410;DHT22;13339;50.840;4.346;2022-09-03T20:13:57;24.30;99.90
25410;DHT22;13339;50.840;4.346;2022-09-03T20:16:49;24.30;99.90
25410;DHT22;13339;50.840;4.346;2022-09-03T20:30:06;24.40;99.90
25410;DHT22;13339;50.840;4.346;2022-09-03T20:35:07;24.20;99.90
25410;DHT22;13339;50.840;4.346;2022-09-03T20:37:40;24.20;99.90
25410;DHT22;13339;50.840;4.346;2022-09-03T20:40:28;24.20;99.90
25410;DHT22;13339;50.840;4.346;2022-09-03T20:43:20;24.10;99.90
25410;DHT22;13339;50.840;4.346;2022-09-03T20:46:12;24.00;99.90
25410;DHT22;13339;50.840;4.346;2022-09-03T20:51:16;24.00;99.90
25410;DHT22;13339;50.840;4.346;2022-09-03T20:56:44;24.00;99.90
25410;DHT22;13339;50.840;4.346;2022-09-03T21:02:25;24.00;99.90
25410;DHT22;13339;50.840;4.346;2022-09-03T21:10:56;24.00;99.90
25410;DHT22;13339;50.840;4.346;2022-09-03T21:13:38;23.90;99.90
25410;DHT22;13339;50.840;4.346;2022-09-03T21:23:49;23.40;99.90
25410;DHT22;13339;50.840;4.346;2022-09-03T21:26:23;23.30;99.90
25410;DHT22;13339;50.840;4.346;2022-09-03T21:29:16;23.30;99.90
25410;DHT22;13339;50.840;4.346;2022-09-03T21:32:10;23.40;99.90
25410;DHT22;13339;50.840;4.346;2022-09-03T21:35:00;23.40;99.90